Time;durP1;ratioP1;P1;durP2;ratioP2;P2;SDS_P1;SDS_P2;PMS_P1;PMS_P2;Temp;Humidity;BMP_temperature;BMP_pressure;BME280_temperature;BME280_humidity;BME280_pressure;Samples;Min_cycle;Max_cycle;Signal;HPM_P1;HPM_P2
2021/04/05 08:55:48;;;;;;;2.60;2.40;;;;;;;5.67;100.00;97994.00;5018020;23;20224;-94
2021/04/05 08:58:27;;;;;;;3.50;3.20;;;;;;;5.73;100.00;97991.06;5007751;23;20236;-93
2021/04/05 09:30:49;;;;;;;3.77;3.47;;;;;;;9.33;100.00;97676.09;4976930;29;20234;-95
2021/04/05 09:33:58;;;;;;;3.57;3.17;;;;;;;9.31;100.00;97588.78;4957255;29;20250;-95
2021/04/05 09:43:15;;;;;;;5.20;4.70;;;;;;;10.31;100.00;97408.31;5030087;23;20245;-94
2021/04/05 09:45:47;;;;;;;5.73;4.57;;;;;;;11.04;100.00;97369.63;4976265;28;20197;-95
2021/04/05 09:48:50;;;;;;;2.47;2.27;;;;;;;10.87;100.00;97312.41;4977489;28;20619;-96
2021/04/05 09:51:54;;;;;;;2.80;2.40;;;;;;;11.04;100.00;97269.66;4974228;28;20280;-95
2021/04/05 09:54:33;;;;;;;10.13;8.07;;;;;;;11.12;100.00;97246.13;4977235;28;20208;-96
2021/04/05 09:57:35;;;;;;;2.50;2.30;;;;;;;9.96;100.00;97224.78;4981781;28;20589;-96
2021/04/05 10:03:16;;;;;;;2.50;2.30;;;;;;;10.46;100.00;97193.31;4978455;28;20200;-96
2021/04/05 10:06:14;;;;;;;2.77;2.53;;;;;;;10.07;100.00;97185.28;4980717;28;20225;-96
2021/04/05 10:08:52;;;;;;;2.97;2.77;;;;;;;10.62;100.00;97164.69;4978863;28;20228;-96
2021/04/05 10:11:26;;;;;;;2.70;2.50;;;;;;;10.56;100.00;97151.25;4984917;28;20205;-95
2021/04/05 10:14:00;;;;;;;2.50;2.30;;;;;;;11.11;100.00;97126.06;4995362;28;20197;-96
2021/04/05 10:16:29;;;;;;;7.13;5.70;;;;;;;10.76;100.00;97138.97;4990361;28;20252;-96
2021/04/05 10:19:02;;;;;;;6.63;5.00;;;;;;;9.61;100.00;97146.41;4991965;28;20221;-96
2021/04/05 10:21:30;;;;;;;6.47;5.67;;;;;;;11.41;100.00;97124.22;4993311;28;20674;-96
2021/04/05 10:23:58;;;;;;;6.57;5.77;;;;;;;10.78;100.00;97126.53;4991577;28;20209;-96
2021/04/05 10:26:31;;;;;;;6.93;5.73;;;;;;;10.28;100.00;97116.09;4984682;28;20231;-96
2021/04/05 10:28:59;;;;;;;5.53;4.33;;;;;;;9.81;100.00;97116.66;4989977;28;20269;-96
2021/04/05 10:31:56;;;;;;;4.73;3.43;;;;;;;9.26;100.00;97118.75;4986941;28;20204;-96
2021/04/05 10:34:55;;;;;;;4.27;3.73;;;;;;;9.17;100.00;97109.00;4907777;29;20248;-96
2021/04/05 10:37:43;;;;;;;5.80;5.20;;;;;;;10.64;100.00;97086.53;4905779;29;20231;-96
2021/04/05 10:40:12;;;;;;;3.43;3.13;;;;;;;11.71;100.00;97080.16;4825829;29;20284;-96
2021/04/05 10:42:48;;;;;;;5.00;4.57;;;;;;;12.26;100.00;97061.72;4825410;29;20274;-96
2021/04/05 10:45:20;;;;;;;2.63;2.43;;;;;;;12.16;100.00;97050.41;4826325;29;20219;-96
2021/04/05 10:48:01;;;;;;;3.67;3.37;;;;;;;11.42;100.00;97041.63;4826977;29;20291;-96
2021/04/05 10:50:29;;;;;;;5.87;5.27;;;;;;;11.61;100.00;97030.19;4827472;29;20290;-96
2021/04/05 10:53:03;;;;;;;3.87;3.47;;;;;;;10.95;100.00;97025.88;4824829;29;20315;-96
2021/04/05 10:55:31;;;;;;;6.40;5.07;;;;;;;11.71;100.00;97015.19;4824726;29;20238;-96
2021/04/05 10:58:01;;;;;;;1.47;1.37;;;;;;;11.79;100.00;97002.09;4824858;29;20243;-96
2021/04/05 11:00:34;;;;;;;1.73;1.23;;;;;;;12.06;100.00;96993.34;4824676;29;20258;-96
2021/04/05 11:03:13;;;;;;;1.00;1.00;;;;;;;11.17;100.00;96985.22;4824782;29;20203;-95
2021/04/05 11:05:47;;;;;;;1.70;1.60;;;;;;;10.28;100.00;96998.69;4836785;29;20218;-95
2021/04/05 11:08:20;;;;;;;1.13;1.13;;;;;;;9.39;100.00;97005.72;4829963;29;20230;-95
2021/04/05 11:10:49;;;;;;;1.50;1.40;;;;;;;9.28;100.00;97010.09;4862571;28;20196;-96
2021/04/05 11:13:23;;;;;;;1.63;1.53;;;;;;;10.55;100.00;96999.78;4998782;23;20267;-95
2021/04/05 11:15:51;;;;;;;1.30;1.20;;;;;;;10.89;100.00;96984.34;4993036;28;20264;-96
2021/04/05 11:18:21;;;;;;;1.03;1.03;;;;;;;11.12;100.00;96972.50;4983494;28;20280;-96
2021/04/05 11:20:51;;;;;;;1.17;1.17;;;;;;;10.69;100.00;96960.72;4979403;28;20212;-94
2021/04/05 11:23:22;;;;;;;0.90;0.90;;;;;;;10.70;100.00;96962.41;4992755;28;20204;-95
2021/04/05 11:25:52;;;;;;;1.17;1.00;;;;;;;11.05;100.00;96955.66;4996334;28;20197;-96
2021/04/05 11:28:28;;;;;;;0.93;0.93;;;;;;;10.42;100.00;96947.50;4988427;28;20212;-95
2021/04/05 11:31:00;;;;;;;1.40;1.30;;;;;;;10.18;100.00;96956.66;4986935;28;20205;-94
2021/04/05 11:33:35;;;;;;;2.07;1.00;;;;;;;10.10;100.00;96961.75;5021217;23;20255;-95
2021/04/05 11:38:49;;;;;;;1.07;1.00;;;;;;;9.93;100.00;96957.19;5028572;23;20221;-94
2021/04/05 11:41:18;;;;;;;1.67;1.57;;;;;;;9.91;100.00;96959.13;4992920;28;20192;-95
2021/04/05 11:43:50;;;;;;;1.07;1.07;;;;;;;9.94;100.00;96951.81;4987579;28;20279;-96
2021/04/05 11:46:18;;;;;;;0.90;0.90;;;;;;;9.92;100.00;96945.84;4987548;28;20290;-96
2021/04/05 11:49:02;;;;;;;0.80;0.80;;;;;;;9.44;100.00;96945.78;4977545;28;20201;-96
2021/04/05 11:51:36;;;;;;;0.80;0.80;;;;;;;9.29;100.00;96948.81;4979160;28;20232;-95
2021/04/05 11:54:08;;;;;;;2.27;1.97;;;;;;;9.51;100.00;96944.28;4976447;28;20206;-95
2021/04/05 11:56:38;;;;;;;1.47;1.37;;;;;;;9.60;100.00;96950.53;4975395;28;20197;-96
2021/04/05 11:59:14;;;;;;;1.50;1.40;;;;;;;9.58;100.00;96941.94;4975504;28;20371;-95
2021/04/05 12:01:50;;;;;;;2.30;2.10;;;;;;;9.56;100.00;96942.09;4974897;28;20300;-94
2021/04/05 12:04:21;;;;;;;3.03;2.00;;;;;;;9.62;100.00;96949.41;4975399;28;20658;-96
2021/04/05 12:06:54;;;;;;;2.30;2.07;;;;;;;9.58;100.00;96953.28;4974884;28;20201;-96
2021/04/05 12:09:28;;;;;;;2.43;2.23;;;;;;;9.61;100.00;96941.69;4974840;28;20201;-96
2021/04/05 12:12:02;;;;;;;1.00;1.00;;;;;;;9.23;100.00;96943.25;4976286;28;20213;-96
2021/04/05 12:14:31;;;;;;;1.50;1.40;;;;;;;9.14;100.00;96939.63;4978685;28;20280;-96
2021/04/05 12:17:00;;;;;;;1.40;1.30;;;;;;;9.30;100.00;96939.13;4974910;28;20232;-96
2021/04/05 12:19:31;;;;;;;1.87;1.77;;;;;;;9.32;100.00;96941.59;4974214;28;20324;-96
2021/04/05 12:22:00;;;;;;;3.80;3.40;;;;;;;9.19;100.00;96941.88;4975081;28;20213;-95
2021/04/05 12:24:34;;;;;;;2.90;2.60;;;;;;;9.36;100.00;96943.03;4976747;28;20205;-94
2021/04/05 13:34:05;;;;;;;4.10;3.70;;;;;;;10.10;100.00;96871.63;4973982;29;20269;-94
2021/04/05 14:46:50;;;;;;;5.30;4.80;;;;;;;9.14;100.00;96805.88;5995281;23;20192;-96
2021/04/05 14:54:58;;;;;;;4.07;3.13;;;;;;;10.12;100.00;96789.09;5379118;23;20242;-96
2021/04/05 15:03:19;;;;;;;4.20;3.40;;;;;;;9.58;100.00;96784.50;4960519;28;20245;-94
2021/04/05 15:35:09;;;;;;;5.83;5.33;;;;;;;9.67;100.00;96745.13;4957747;28;20727;-92
2021/04/05 15:37:36;;;;;;;5.70;5.20;;;;;;;9.71;100.00;96741.25;4956347;29;20224;-92
2021/04/05 15:40:06;;;;;;;8.60;7.70;;;;;;;9.84;100.00;96743.56;4955432;29;20202;-91
2021/04/05 15:42:40;;;;;;;8.67;7.73;;;;;;;9.86;100.00;96735.53;4955636;29;20202;-92
2021/04/05 15:45:24;;;;;;;15.07;11.23;;;;;;;9.78;100.00;96731.00;4956461;29;20201;-95
2021/04/05 15:48:00;;;;;;;78.40;45.73;;;;;;;9.79;100.00;96716.91;4998265;23;20229;-96
2021/04/05 15:50:33;;;;;;;26.87;18.77;;;;;;;9.85;100.00;96716.34;4982654;28;20200;-95
2021/04/05 15:53:13;;;;;;;19.70;12.13;;;;;;;9.78;100.00;96715.25;4979145;28;20216;-96
2021/04/05 15:55:49;;;;;;;13.97;10.07;;;;;;;9.85;100.00;96708.47;4984825;28;20201;-96
2021/04/05 15:58:24;;;;;;;7.50;6.80;;;;;;;9.71;100.00;96706.28;4984863;28;20232;-95
2021/04/05 16:09:09;;;;;;;4.63;4.23;;;;;;;9.29;100.00;96709.28;5003161;23;20241;-94
2021/04/05 16:20:34;;;;;;;11.23;8.03;;;;;;;9.00;100.00;96691.75;4980641;28;20252;-95
2021/04/05 16:23:08;;;;;;;11.60;9.63;;;;;;;8.92;100.00;96682.94;4979801;28;20208;-95
2021/04/05 16:26:00;;;;;;;15.23;12.57;;;;;;;8.98;100.00;96691.06;4988002;28;20204;-95
2021/04/05 16:31:33;;;;;;;17.20;12.30;;;;;;;8.83;100.00;96692.44;4983812;28;20196;-95
2021/04/05 20:48:47;;;;;;;7.17;6.57;;;;;;;4.91;100.00;97513.59;5131381;27;20551;-91
2021/04/05 20:51:20;;;;;;;7.20;6.50;;;;;;;4.82;100.00;97488.13;5131284;28;20556;-92
2021/04/05 20:53:58;;;;;;;7.53;6.93;;;;;;;4.90;100.00;97491.91;5131277;28;20198;-91
2021/04/05 20:56:30;;;;;;;8.73;7.93;;;;;;;4.94;100.00;97521.22;5131547;28;20199;-94
2021/04/05 20:59:01;;;;;;;8.10;7.40;;;;;;;4.82;100.00;97530.63;5131158;28;20643;-92
2021/04/05 21:01:39;;;;;;;6.27;5.77;;;;;;;4.85;100.00;97553.88;5130960;28;20226;-91
2021/04/05 21:04:09;;;;;;;7.27;6.67;;;;;;;4.94;100.00;97561.13;5131092;28;20206;-91
2021/04/05 21:06:37;;;;;;;7.53;6.60;;;;;;;4.94;100.00;97566.34;5130780;28;20203;-92
2021/04/05 21:09:05;;;;;;;7.37;6.77;;;;;;;4.85;100.00;97563.44;5130880;28;20203;-92
2021/04/05 21:11:53;;;;;;;6.27;5.70;;;;;;;4.77;100.00;97579.53;5130804;28;20274;-92
2021/04/05 21:14:27;;;;;;;7.37;6.73;;;;;;;4.77;100.00;97597.75;5131112;28;20219;-93
2021/04/05 21:16:57;;;;;;;7.30;6.70;;;;;;;4.84;100.00;97613.88;5130935;28;20544;-92
2021/04/05 21:19:32;;;;;;;7.70;7.10;;;;;;;4.74;100.00;97639.63;5130367;28;20252;-91
2021/04/05 21:22:01;;;;;;;6.90;6.30;;;;;;;4.74;100.00;97647.44;5130988;28;20182;-93
2021/04/05 21:24:32;;;;;;;6.50;5.90;;;;;;;4.64;100.00;97662.78;5130655;28;20201;-93
2021/04/05 21:27:06;;;;;;;6.83;6.23;;;;;;;4.71;100.00;97686.66;5130820;28;20218;-92
2021/04/05 21:29:36;;;;;;;7.17;6.57;;;;;;;4.73;100.00;97703.91;5130644;28;20202;-92
2021/04/05 21:32:06;;;;;;;6.60;6.07;;;;;;;4.66;100.00;97723.41;5130423;28;20656;-92
2021/04/05 21:34:41;;;;;;;7.47;6.90;;;;;;;4.67;100.00;97726.84;5130484;28;20244;-92
2021/04/05 21:37:14;;;;;;;7.03;6.37;;;;;;;4.66;100.00;97738.19;5130324;28;20189;-92
2021/04/05 21:39:45;;;;;;;7.47;6.77;;;;;;;4.59;100.00;97742.91;5130282;28;20274;-93
2021/04/05 21:42:22;;;;;;;6.97;6.27;;;;;;;4.70;100.00;97757.94;5130180;28;20273;-92
2021/04/05 21:44:51;;;;;;;7.53;6.93;;;;;;;4.62;100.00;97760.97;5130130;28;20658;-91
2021/04/05 21:47:21;;;;;;;7.87;6.17;;;;;;;4.66;100.00;97774.66;5130053;28;20226;-92
2021/04/05 21:49:51;;;;;;;6.83;6.23;;;;;;;4.55;100.00;97783.06;5130137;28;20194;-93
2021/04/05 21:52:21;;;;;;;6.97;6.37;;;;;;;4.55;100.00;97782.22;5130204;28;20260;-93
2021/04/05 21:54:54;;;;;;;8.63;7.83;;;;;;;4.56;100.00;97783.91;5129840;28;20222;-92
2021/04/05 21:57:23;;;;;;;6.60;6.03;;;;;;;4.53;100.00;97784.88;5129638;28;20222;-92
2021/04/05 22:00:01;;;;;;;7.23;6.63;;;;;;;4.47;100.00;97780.88;5116417;28;20199;-93
2021/04/05 22:02:30;;;;;;;7.30;6.70;;;;;;;4.56;100.00;97799.53;5116621;28;20648;-93
2021/04/05 22:05:01;;;;;;;7.87;7.17;;;;;;;4.62;100.00;97809.59;5116056;28;20195;-92
2021/04/05 22:07:30;;;;;;;8.67;7.83;;;;;;;4.59;100.00;97812.38;5115849;28;20312;-92
2021/04/05 22:10:01;;;;;;;7.83;7.13;;;;;;;4.66;100.00;97824.97;5116021;28;20262;-92
2021/04/05 22:12:29;;;;;;;6.90;6.40;;;;;;;4.66;100.00;97819.75;5115912;28;20757;-92
2021/04/05 22:15:08;;;;;;;7.80;7.10;;;;;;;4.69;100.00;97824.81;5116067;28;20558;-92
2021/04/05 22:17:36;;;;;;;9.33;8.53;;;;;;;4.65;100.00;97823.28;5116012;28;20270;-92
2021/04/05 22:20:12;;;;;;;8.87;8.00;;;;;;;4.70;100.00;97805.63;5115542;28;20231;-92
2021/04/05 22:22:51;;;;;;;7.47;6.83;;;;;;;4.77;100.00;97787.91;5115865;28;20184;-92
2021/04/05 22:25:33;;;;;;;8.80;7.57;;;;;;;4.75;100.00;97774.16;5115684;28;20186;-93
2021/04/05 22:30:34;;;;;;;8.27;7.57;;;;;;;4.83;100.00;97738.09;5013276;28;20238;-89
2021/04/05 22:33:02;;;;;;;8.13;7.43;;;;;;;4.83;100.00;97716.41;5014877;28;20282;-89
2021/04/05 22:35:31;;;;;;;8.37;7.60;;;;;;;4.83;100.00;97690.34;5015716;28;20243;-89
2021/04/05 22:38:08;;;;;;;7.50;6.90;;;;;;;4.92;100.00;97666.38;5015707;28;20282;-89
2021/04/05 22:40:46;;;;;;;8.67;7.87;;;;;;;4.87;100.00;97632.78;5015566;28;20187;-90
2021/04/05 22:43:14;;;;;;;8.03;7.33;;;;;;;4.92;100.00;97598.66;5015153;28;20180;-90
2021/04/05 22:45:41;;;;;;;8.67;7.87;;;;;;;4.98;100.00;97567.00;5015226;28;20203;-90
2021/04/05 22:48:10;;;;;;;8.70;7.90;;;;;;;4.95;100.00;97533.31;5014885;28;20318;-89
2021/04/05 22:50:42;;;;;;;8.67;7.53;;;;;;;4.92;100.00;97510.91;5014889;28;20282;-89
2021/04/05 22:53:16;;;;;;;8.60;7.70;;;;;;;4.87;100.00;97499.06;5015269;28;20196;-89
2021/04/05 22:55:51;;;;;;;8.33;7.10;;;;;;;4.83;100.00;97464.56;5014928;28;20275;-89
2021/04/05 22:58:23;;;;;;;9.27;8.47;;;;;;;4.86;100.00;97442.72;5015019;28;20603;-89
2021/04/05 23:00:53;;;;;;;9.13;8.10;;;;;;;4.93;100.00;97423.16;5015124;28;20275;-89
2021/04/05 23:03:20;;;;;;;8.17;7.57;;;;;;;4.94;100.00;97398.78;5014945;28;20640;-89
2021/04/05 23:06:12;;;;;;;9.13;6.87;;;;;;;4.92;100.00;97354.59;5014705;28;20286;-89
2021/04/05 23:08:42;;;;;;;8.70;7.03;;;;;;;5.05;100.00;97353.78;5015155;28;20197;-89
2021/04/05 23:11:09;;;;;;;7.77;7.03;;;;;;;5.06;100.00;97334.63;5013802;28;20199;-89
2021/04/05 23:13:39;;;;;;;7.23;6.63;;;;;;;5.05;100.00;97328.56;5014769;28;20207;-89
2021/04/05 23:16:12;;;;;;;7.13;6.50;;;;;;;4.97;100.00;97316.03;5014544;28;20222;-89
2021/04/05 23:18:53;;;;;;;7.50;6.80;;;;;;;5.05;100.00;97304.28;5014711;28;20196;-89
2021/04/05 23:21:23;;;;;;;8.20;7.50;;;;;;;4.99;100.00;97288.13;5014498;28;20187;-89
2021/04/05 23:23:52;;;;;;;6.70;6.10;;;;;;;5.04;100.00;97293.03;5014358;28;20206;-89
2021/04/05 23:26:27;;;;;;;7.00;6.40;;;;;;;5.10;100.00;97289.22;5014401;28;20260;-90
2021/04/05 23:28:58;;;;;;;7.50;6.80;;;;;;;5.09;100.00;97264.94;5013965;28;20238;-89
2021/04/05 23:31:30;;;;;;;7.40;6.70;;;;;;;5.14;100.00;97254.19;5014255;28;20198;-89
2021/04/05 23:34:05;;;;;;;7.17;6.57;;;;;;;5.10;100.00;97250.13;5014317;28;20182;-90
2021/04/05 23:36:33;;;;;;;7.43;6.73;;;;;;;5.06;100.00;97235.59;5014113;28;20662;-89
2021/04/05 23:39:06;;;;;;;8.37;7.47;;;;;;;5.00;100.00;97229.03;5014226;28;20199;-89
2021/04/05 23:41:35;;;;;;;7.63;6.93;;;;;;;4.99;100.00;97217.78;5014210;28;20188;-89
2021/04/05 23:44:07;;;;;;;6.90;6.37;;;;;;;4.96;100.00;97204.13;5013864;28;20191;-89
2021/04/05 23:46:35;;;;;;;7.47;6.77;;;;;;;5.03;100.00;97204.56;5013868;28;20190;-89
2021/04/05 23:49:03;;;;;;;8.70;7.10;;;;;;;5.14;100.00;97182.06;5013763;28;20290;-89
2021/04/05 23:51:34;;;;;;;8.80;8.10;;;;;;;5.16;100.00;97169.78;5013751;28;20294;-90
2021/04/05 23:54:12;;;;;;;7.37;6.70;;;;;;;5.14;100.00;97152.56;5014105;28;20572;-90
2021/04/05 23:56:40;;;;;;;8.07;7.30;;;;;;;5.17;100.00;97153.19;5013701;28;20274;-89
2021/04/05 23:59:10;;;;;;;8.67;7.87;;;;;;;5.19;100.00;97145.25;5013896;28;20591;-89
